Time;durP1;ratioP1;P1;durP2;ratioP2;P2;SDS_P1;SDS_P2;PMS_P1;PMS_P2;Temp;Humidity;BMP_temperature;BMP_pressure;BME280_temperature;BME280_humidity;BME280_pressure;Samples;Min_cycle;Max_cycle;Signal;HPM_P1;HPM_P2
2023/12/04 00:00:10;;;;;;;10.80;9.77;;;-0.70;99.90;;;;;;4961198;28;20211;-79
2023/12/04 00:02:39;;;;;;;13.65;10.68;;;-0.70;99.90;;;;;;4963729;28;20216;-79
2023/12/04 00:05:11;;;;;;;12.38;10.65;;;-0.80;99.90;;;;;;4960723;28;20208;-80
2023/12/04 00:07:40;;;;;;;11.50;10.27;;;-0.80;99.90;;;;;;4959109;28;20228;-79
2023/12/04 00:10:09;;;;;;;12.48;9.98;;;-0.90;99.90;;;;;;4959203;28;20204;-79
2023/12/04 00:12:37;;;;;;;10.02;8.57;;;-0.90;99.90;;;;;;4959761;28;20687;-77
2023/12/04 00:15:08;;;;;;;9.75;8.75;;;-0.90;99.90;;;;;;4961446;28;20264;-79
2023/12/04 00:17:39;;;;;;;11.15;9.40;;;-0.90;99.90;;;;;;4964378;28;20209;-80
2023/12/04 00:20:10;;;;;;;11.45;9.80;;;-0.90;99.90;;;;;;4966192;28;20197;-80
2023/12/04 00:22:39;;;;;;;10.50;9.45;;;-0.90;99.90;;;;;;4966349;28;20260;-80
2023/12/04 00:25:08;;;;;;;10.48;9.48;;;-0.80;99.90;;;;;;4966209;28;20207;-80
2023/12/04 00:27:36;;;;;;;10.32;9.25;;;-0.80;99.90;;;;;;4962776;28;20220;-80
2023/12/04 00:30:07;;;;;;;9.52;8.52;;;-0.80;99.90;;;;;;4965040;28;20235;-79
2023/12/04 00:32:35;;;;;;;9.93;8.50;;;-0.80;99.90;;;;;;4961632;28;20220;-79
2023/12/04 00:35:04;;;;;;;12.07;8.80;;;-0.80;99.90;;;;;;4962812;28;20208;-79
2023/12/04 00:37:37;;;;;;;14.13;10.52;;;-0.80;99.90;;;;;;4960045;28;20221;-79
2023/12/04 00:40:07;;;;;;;11.45;10.25;;;-0.80;99.90;;;;;;4961793;28;20660;-80
2023/12/04 00:42:35;;;;;;;9.27;8.48;;;-0.80;99.90;;;;;;4965649;28;20215;-81
2023/12/04 00:45:05;;;;;;;8.45;7.75;;;-0.80;99.90;;;;;;4964788;28;20200;-80
2023/12/04 00:47:34;;;;;;;10.73;8.32;;;-0.80;99.90;;;;;;4967060;28;20317;-80
2023/12/04 00:50:03;;;;;;;11.45;9.77;;;-0.80;99.90;;;;;;4965795;28;20210;-80
2023/12/04 00:52:31;;;;;;;9.82;8.75;;;-0.80;99.90;;;;;;4966237;28;20657;-80
2023/12/04 00:54:59;;;;;;;9.07;8.02;;;-0.70;99.90;;;;;;4966504;28;20208;-80
2023/12/04 00:57:27;;;;;;;12.70;10.43;;;-0.80;99.90;;;;;;4963067;28;20231;-78
2023/12/04 00:59:56;;;;;;;12.48;11.13;;;-0.90;99.90;;;;;;4965645;28;20266;-80
2023/12/04 01:02:24;;;;;;;11.23;10.07;;;-1.00;99.90;;;;;;4958544;28;20255;-80
2023/12/04 01:04:53;;;;;;;12.07;10.77;;;-1.10;99.90;;;;;;4960856;28;20319;-80
2023/12/04 01:07:22;;;;;;;12.25;9.48;;;-1.20;99.90;;;;;;4961483;28;20250;-79
2023/12/04 01:09:50;;;;;;;9.82;8.88;;;-1.30;99.90;;;;;;4961368;28;20212;-80
2023/12/04 01:12:18;;;;;;;10.15;9.23;;;-1.20;99.90;;;;;;4960401;28;20265;-79
2023/12/04 01:14:46;;;;;;;10.57;9.20;;;-1.10;99.90;;;;;;4961580;28;20240;-80
2023/12/04 01:17:14;;;;;;;10.80;9.38;;;-1.10;99.90;;;;;;4957344;28;20224;-80
2023/12/04 01:19:42;;;;;;;12.20;10.02;;;-1.00;99.90;;;;;;4962290;28;20200;-79
2023/12/04 01:22:12;;;;;;;11.00;9.90;;;-1.10;99.90;;;;;;4961142;28;20188;-79
2023/12/04 01:24:40;;;;;;;12.10;9.00;;;-1.10;99.90;;;;;;4965085;28;20255;-80
2023/12/04 01:27:08;;;;;;;10.43;9.43;;;-1.00;99.90;;;;;;4964458;28;20358;-80
2023/12/04 01:29:37;;;;;;;9.60;8.70;;;-1.10;99.90;;;;;;4960803;28;20204;-81
2023/12/04 01:32:06;;;;;;;12.27;9.85;;;-1.10;99.90;;;;;;4961466;28;20225;-79
2023/12/04 01:34:34;;;;;;;10.60;9.60;;;-1.10;99.90;;;;;;4960748;28;20439;-80
2023/12/04 01:37:02;;;;;;;10.23;9.23;;;-1.10;99.90;;;;;;4963824;28;20217;-81
2023/12/04 01:39:31;;;;;;;10.23;8.30;;;-1.10;99.90;;;;;;4963236;28;20238;-78
2023/12/04 01:42:00;;;;;;;10.13;9.07;;;-1.10;99.90;;;;;;4960093;28;20194;-80
2023/12/04 01:44:28;;;;;;;11.95;9.63;;;-1.00;99.90;;;;;;4962411;28;20230;-80
2023/12/04 01:46:57;;;;;;;10.10;9.05;;;-1.00;99.90;;;;;;4961497;28;20228;-78
2023/12/04 01:49:25;;;;;;;9.70;8.63;;;-1.10;99.90;;;;;;4961315;28;20196;-81
2023/12/04 01:51:54;;;;;;;10.60;8.70;;;-1.10;99.90;;;;;;4961460;28;20675;-81
2023/12/04 01:54:23;;;;;;;10.00;8.50;;;-1.10;99.90;;;;;;4962764;28;20212;-80
2023/12/04 01:56:52;;;;;;;10.35;9.35;;;-1.10;99.90;;;;;;4961309;28;20801;-81
2023/12/04 01:59:21;;;;;;;8.73;7.82;;;-1.10;99.90;;;;;;4962022;28;20216;-80
2023/12/04 02:01:50;;;;;;;9.30;8.40;;;-1.00;99.90;;;;;;4960586;28;20270;-81
2023/12/04 02:04:18;;;;;;;9.30;8.43;;;-1.00;99.90;;;;;;4957903;28;20213;-80
2023/12/04 02:06:47;;;;;;;11.30;8.55;;;-1.00;99.90;;;;;;4961696;28;20227;-80
2023/12/04 02:09:16;;;;;;;10.85;8.88;;;-1.00;99.90;;;;;;4962355;28;20621;-81
2023/12/04 02:11:44;;;;;;;9.30;8.30;;;-1.10;99.90;;;;;;4960829;28;20201;-80
2023/12/04 02:14:14;;;;;;;8.95;7.93;;;-1.10;99.90;;;;;;4963860;28;20235;-80
2023/12/04 02:16:43;;;;;;;9.63;8.63;;;-1.00;99.90;;;;;;4959394;28;20217;-79
2023/12/04 02:19:16;;;;;;;9.55;8.60;;;-1.10;99.90;;;;;;4962603;28;20234;-80
2023/12/04 02:21:44;;;;;;;10.50;8.18;;;-1.10;99.90;;;;;;4967222;28;20229;-81
2023/12/04 02:24:14;;;;;;;8.73;7.82;;;-1.10;99.90;;;;;;4959784;28;20280;-79
2023/12/04 02:26:48;;;;;;;10.77;7.70;;;-1.00;99.90;;;;;;4958928;28;20224;-79
2023/12/04 02:29:24;;;;;;;9.80;7.95;;;-1.10;99.90;;;;;;4958828;28;20213;-79
2023/12/04 02:31:54;;;;;;;9.65;8.65;;;-1.10;99.90;;;;;;4959425;28;20203;-79
2023/12/04 02:34:24;;;;;;;8.48;7.53;;;-1.20;99.90;;;;;;4955439;28;20235;-79
2023/12/04 02:36:54;;;;;;;8.13;7.32;;;-1.20;99.90;;;;;;4957184;28;20313;-80
2023/12/04 02:39:23;;;;;;;11.07;8.32;;;-1.30;99.90;;;;;;4956760;28;20209;-79
2023/12/04 02:41:52;;;;;;;8.80;8.00;;;-1.20;99.90;;;;;;4956641;28;20626;-80
2023/12/04 02:44:20;;;;;;;9.35;8.45;;;-1.30;99.90;;;;;;4957778;28;20231;-80
2023/12/04 02:46:48;;;;;;;10.05;8.35;;;-1.30;99.90;;;;;;4961063;28;20793;-79
2023/12/04 02:49:16;;;;;;;8.05;7.35;;;-1.30;99.90;;;;;;4966571;28;20200;-80
2023/12/04 02:51:45;;;;;;;11.43;8.27;;;-1.30;99.90;;;;;;4962833;28;20213;-81
2023/12/04 02:54:13;;;;;;;9.10;8.30;;;-1.40;99.90;;;;;;4958996;28;20252;-80
2023/12/04 02:56:43;;;;;;;9.95;8.30;;;-1.40;99.90;;;;;;4964273;28;20220;-80
2023/12/04 02:59:11;;;;;;;8.63;7.72;;;-1.30;99.90;;;;;;4965067;28;20875;-81
2023/12/04 03:01:39;;;;;;;10.23;8.45;;;-1.30;99.90;;;;;;4967943;28;20217;-79
2023/12/04 03:04:07;;;;;;;10.20;9.00;;;-1.20;99.90;;;;;;4966154;28;20459;-80
2023/12/04 03:06:35;;;;;;;8.88;8.07;;;-1.20;99.90;;;;;;4969545;28;20227;-80
2023/12/04 03:09:05;;;;;;;8.70;7.90;;;-1.10;99.90;;;;;;4968810;28;20264;-79
2023/12/04 03:11:33;;;;;;;9.88;7.97;;;-1.20;99.90;;;;;;4968233;28;20212;-80
2023/12/04 03:14:02;;;;;;;8.25;7.45;;;-1.20;99.90;;;;;;4966986;28;20694;-80
2023/12/04 03:16:30;;;;;;;9.50;8.50;;;-1.20;99.90;;;;;;4965463;28;20232;-80
2023/12/04 03:18:59;;;;;;;10.35;8.30;;;-1.20;99.90;;;;;;4967881;28;20197;-80
2023/12/04 03:21:28;;;;;;;8.70;7.90;;;-1.20;99.90;;;;;;4967326;28;20201;-80
2023/12/04 03:23:56;;;;;;;8.38;7.57;;;-1.20;99.90;;;;;;4964939;28;20220;-79
2023/12/04 03:26:25;;;;;;;10.50;8.68;;;-1.30;99.90;;;;;;4965771;28;20244;-80
2023/12/04 03:28:53;;;;;;;12.65;7.95;;;-1.20;99.90;;;;;;4961824;28;20201;-80
2023/12/04 03:31:22;;;;;;;11.80;8.43;;;-1.10;99.90;;;;;;4962273;28;20283;-80
2023/12/04 03:33:51;;;;;;;10.80;9.05;;;-1.10;99.90;;;;;;4963736;28;20371;-79
2023/12/04 03:36:19;;;;;;;10.77;8.10;;;-1.20;99.90;;;;;;4962389;28;20590;-80
2023/12/04 03:38:47;;;;;;;9.55;8.65;;;-1.30;99.90;;;;;;4962404;28;20205;-80
2023/12/04 03:41:16;;;;;;;10.90;9.23;;;-1.30;99.90;;;;;;4962547;28;20260;-80
2023/12/04 03:43:44;;;;;;;9.90;8.82;;;-1.20;99.90;;;;;;4960076;28;20269;-80
2023/12/04 03:46:13;;;;;;;9.80;8.25;;;-1.20;99.90;;;;;;4961014;28;20724;-79
2023/12/04 03:48:42;;;;;;;8.32;7.60;;;-1.10;99.90;;;;;;4959649;28;20230;-80
2023/12/04 03:51:10;;;;;;;10.20;8.40;;;-1.10;99.90;;;;;;4964295;28;20256;-80
2023/12/04 03:53:39;;;;;;;11.60;8.57;;;-1.00;99.90;;;;;;4965579;28;20216;-78
2023/12/04 03:56:08;;;;;;;8.18;7.30;;;-1.10;99.90;;;;;;4965852;28;20275;-79
2023/12/04 03:58:37;;;;;;;8.18;7.28;;;-1.00;99.90;;;;;;4962343;28;20211;-79
2023/12/04 04:01:05;;;;;;;9.63;8.55;;;-1.00;99.90;;;;;;4966199;28;20208;-79
2023/12/04 04:03:34;;;;;;;10.15;8.40;;;-1.00;99.90;;;;;;4964887;28;20262;-79
2023/12/04 04:06:04;;;;;;;9.82;8.85;;;-1.00;99.90;;;;;;4964601;28;20227;-79
2023/12/04 04:08:32;;;;;;;8.75;7.53;;;-0.90;99.90;;;;;;4966529;28;20686;-78
2023/12/04 04:11:00;;;;;;;9.90;8.20;;;-0.90;99.90;;;;;;4960599;28;20201;-77
2023/12/04 04:13:28;;;;;;;10.30;9.25;;;-1.00;99.90;;;;;;4959995;28;20216;-79
2023/12/04 04:15:57;;;;;;;11.98;9.43;;;-1.00;99.90;;;;;;4964949;28;20235;-78
2023/12/04 04:18:25;;;;;;;9.07;8.30;;;-1.00;99.90;;;;;;4962985;28;20247;-80
2023/12/04 04:20:53;;;;;;;8.95;8.15;;;-1.00;99.90;;;;;;4963963;28;20205;-81
2023/12/04 04:23:23;;;;;;;9.13;8.13;;;-1.00;99.90;;;;;;4968584;28;20201;-80
2023/12/04 04:25:52;;;;;;;9.65;8.75;;;-0.90;99.90;;;;;;4967728;28;20223;-80
2023/12/04 04:28:20;;;;;;;8.55;7.75;;;-1.00;99.90;;;;;;4968059;28;20208;-81
2023/12/04 04:30:48;;;;;;;9.18;8.35;;;-1.00;99.90;;;;;;4962064;28;20212;-78
2023/12/04 04:33:17;;;;;;;10.93;9.10;;;-1.00;99.90;;;;;;4960503;28;20271;-79
2023/12/04 04:35:45;;;;;;;8.40;7.50;;;-1.00;99.90;;;;;;4960580;28;20291;-77
2023/12/04 04:38:13;;;;;;;10.57;8.77;;;-1.00;99.90;;;;;;4961611;28;20959;-79
2023/12/04 04:40:44;;;;;;;9.35;8.45;;;-0.90;99.90;;;;;;4961275;28;20208;-80
2023/12/04 04:43:12;;;;;;;8.40;7.60;;;-0.90;99.90;;;;;;4960354;28;20197;-80
2023/12/04 04:45:40;;;;;;;9.48;8.55;;;-0.90;99.90;;;;;;4966054;28;20223;-79
2023/12/04 04:48:09;;;;;;;10.05;8.35;;;-1.00;99.90;;;;;;4962066;28;20300;-80
2023/12/04 04:50:37;;;;;;;10.77;8.40;;;-1.00;99.90;;;;;;4964365;28;20200;-79
2023/12/04 04:53:05;;;;;;;8.55;7.75;;;-1.00;99.90;;;;;;4961262;28;20227;-80
2023/12/04 04:55:33;;;;;;;9.65;8.32;;;-1.00;99.90;;;;;;4963546;28;20715;-80
2023/12/04 04:58:17;;;;;;;9.25;7.82;;;-0.90;99.90;;;;;;4964714;28;20265;-79
2023/12/04 05:00:46;;;;;;;9.85;8.95;;;-0.90;99.90;;;;;;4955113;28;20477;-79
2023/12/04 05:03:15;;;;;;;9.38;8.52;;;-1.00;99.90;;;;;;4959959;28;20666;-80
2023/12/04 05:05:43;;;;;;;7.65;6.90;;;-0.80;99.90;;;;;;4961664;28;20224;-80
2023/12/04 05:08:11;;;;;;;7.75;7.05;;;-0.80;99.90;;;;;;4963365;28;20648;-80
2023/12/04 05:10:40;;;;;;;8.85;7.95;;;-0.80;99.90;;;;;;4962048;28;20219;-80
2023/12/04 05:13:08;;;;;;;9.10;8.30;;;-0.90;99.90;;;;;;4963262;28;20224;-80
2023/12/04 05:15:38;;;;;;;9.02;8.13;;;-0.90;99.90;;;;;;4961771;28;20220;-80
2023/12/04 05:18:06;;;;;;;8.85;8.05;;;-0.90;99.90;;;;;;4959625;28;20785;-80
2023/12/04 05:20:35;;;;;;;8.10;7.40;;;-0.90;99.90;;;;;;4961754;28;20271;-80
2023/12/04 05:23:03;;;;;;;8.15;7.07;;;-1.00;99.90;;;;;;4960036;28;20205;-80
2023/12/04 05:25:31;;;;;;;9.48;7.93;;;-1.00;99.90;;;;;;4961189;28;20197;-77
2023/12/04 05:28:08;;;;;;;8.93;7.80;;;-0.90;99.90;;;;;;4963063;28;20200;-78
2023/12/04 05:30:38;;;;;;;9.10;8.25;;;-0.80;99.90;;;;;;4960832;28;20220;-80
2023/12/04 05:33:07;;;;;;;10.15;9.20;;;-0.80;99.90;;;;;;4959391;28;20246;-80
2023/12/04 05:35:37;;;;;;;8.77;7.95;;;-0.80;99.90;;;;;;4957305;28;20361;-79
2023/12/04 05:38:05;;;;;;;8.18;7.50;;;-0.80;99.90;;;;;;4957787;28;20225;-79
2023/12/04 05:40:33;;;;;;;9.43;8.38;;;-0.70;99.90;;;;;;4974421;28;20204;-79
2023/12/04 05:43:01;;;;;;;8.00;7.30;;;-0.70;99.90;;;;;;4958849;28;20575;-79
2023/12/04 05:45:29;;;;;;;9.68;8.30;;;-0.70;99.90;;;;;;4959300;28;20188;-79
2023/12/04 05:47:58;;;;;;;7.80;7.10;;;-0.70;99.90;;;;;;4959750;28;20201;-77
2023/12/04 05:50:27;;;;;;;8.05;7.35;;;-0.80;99.90;;;;;;4957831;28;20280;-79
2023/12/04 05:52:55;;;;;;;8.05;7.40;;;-0.80;99.90;;;;;;4960450;28;20201;-79
2023/12/04 05:55:23;;;;;;;9.68;8.68;;;-0.70;99.90;;;;;;4959265;28;20216;-80
2023/12/04 05:57:51;;;;;;;10.18;9.02;;;-0.80;99.90;;;;;;4958869;28;20216;-78
2023/12/04 06:00:21;;;;;;;9.27;7.97;;;-0.70;99.90;;;;;;4955011;28;20204;-77
2023/12/04 06:02:54;;;;;;;10.18;8.45;;;-0.70;99.90;;;;;;4958685;28;20311;-79
2023/12/04 06:05:24;;;;;;;10.27;9.23;;;-0.70;99.90;;;;;;4954408;28;20671;-76
2023/12/04 06:07:52;;;;;;;9.82;8.23;;;-0.60;99.90;;;;;;4958252;28;20189;-79
2023/12/04 06:10:20;;;;;;;8.02;7.32;;;-0.70;99.90;;;;;;4958579;28;20220;-78
2023/12/04 06:12:48;;;;;;;11.52;8.55;;;-0.70;99.90;;;;;;4953061;28;20231;-79
2023/12/04 06:15:17;;;;;;;9.18;7.55;;;-0.70;99.90;;;;;;4958337;28;20849;-78
2023/12/04 06:17:45;;;;;;;8.95;8.15;;;-0.80;99.90;;;;;;4959302;28;20227;-78
2023/12/04 06:20:13;;;;;;;9.10;8.25;;;-0.70;99.90;;;;;;4957411;28;20227;-78
2023/12/04 06:22:43;;;;;;;9.23;8.30;;;-0.80;99.90;;;;;;4962857;28;20259;-80
2023/12/04 06:25:13;;;;;;;10.27;8.60;;;-0.70;99.90;;;;;;4970066;28;20207;-79
2023/12/04 06:27:42;;;;;;;8.73;7.95;;;-0.80;99.90;;;;;;4960557;28;20220;-78
2023/12/04 06:30:11;;;;;;;10.07;8.77;;;-0.80;99.90;;;;;;4962529;28;20533;-78
2023/12/04 06:32:40;;;;;;;8.93;8.05;;;-0.80;99.90;;;;;;4960992;28;20207;-79
2023/12/04 06:35:10;;;;;;;8.88;8.13;;;-0.70;99.90;;;;;;4959478;28;20220;-78
2023/12/04 06:37:40;;;;;;;8.32;7.50;;;-0.90;99.90;;;;;;4961206;28;20572;-79
2023/12/04 06:40:11;;;;;;;10.52;8.52;;;-0.90;99.90;;;;;;4964708;28;20795;-79
2023/12/04 06:42:40;;;;;;;7.75;7.05;;;-0.80;99.90;;;;;;4964244;28;20524;-79
2023/12/04 06:45:10;;;;;;;8.02;7.22;;;-0.90;99.90;;;;;;4963948;28;20201;-78
2023/12/04 06:47:40;;;;;;;7.18;6.57;;;-0.80;99.90;;;;;;4959340;28;21114;-79
2023/12/04 06:50:09;;;;;;;7.90;7.20;;;-0.80;99.90;;;;;;4960942;28;20232;-80
2023/12/04 06:52:37;;;;;;;8.80;7.28;;;-0.70;99.90;;;;;;4962545;28;20231;-79
2023/12/04 06:55:07;;;;;;;8.02;7.30;;;-0.70;99.90;;;;;;4961710;28;20229;-80
2023/12/04 06:57:36;;;;;;;8.52;7.72;;;-0.70;99.90;;;;;;4958070;28;20220;-78
2023/12/04 07:00:07;;;;;;;7.55;6.75;;;-0.70;99.90;;;;;;4960960;28;20231;-79
2023/12/04 07:02:50;;;;;;;7.82;7.22;;;-0.70;99.90;;;;;;4960366;28;20205;-79
2023/12/04 07:05:19;;;;;;;9.77;8.88;;;-0.70;99.90;;;;;;4959465;28;20228;-79
2023/12/04 07:07:47;;;;;;;7.93;7.20;;;-0.60;99.90;;;;;;4974859;28;20216;-79
2023/12/04 07:10:15;;;;;;;10.20;8.57;;;-0.50;99.90;;;;;;4964977;28;20203;-78
2023/12/04 07:12:45;;;;;;;9.48;8.63;;;-0.50;99.90;;;;;;4963461;28;20606;-78
2023/12/04 07:15:14;;;;;;;9.25;8.27;;;-0.50;99.90;;;;;;4964136;28;20209;-78
2023/12/04 07:17:42;;;;;;;9.25;8.07;;;-0.50;99.90;;;;;;4961982;28;20229;-79
2023/12/04 07:20:12;;;;;;;11.05;9.70;;;-0.50;99.90;;;;;;4963213;28;20716;-79
2023/12/04 07:22:41;;;;;;;11.18;9.30;;;-0.50;99.90;;;;;;4960325;28;20196;-79
2023/12/04 07:25:09;;;;;;;8.85;7.60;;;-0.40;99.90;;;;;;4962863;28;20196;-79
2023/12/04 07:27:38;;;;;;;9.88;9.02;;;-0.40;99.90;;;;;;4958911;28;20231;-78
2023/12/04 07:30:09;;;;;;;11.05;8.30;;;-0.50;99.90;;;;;;4961214;28;20285;-79
2023/12/04 07:32:37;;;;;;;8.20;7.40;;;-0.50;99.90;;;;;;4959905;28;20212;-79
2023/12/04 07:35:07;;;;;;;7.97;7.18;;;-0.50;99.90;;;;;;4962537;28;20223;-79
2023/12/04 07:37:35;;;;;;;8.43;7.38;;;-0.50;99.90;;;;;;4962353;28;20232;-79
2023/12/04 07:40:05;;;;;;;8.45;7.63;;;-0.50;99.90;;;;;;4961237;28;20208;-77
2023/12/04 07:42:33;;;;;;;8.00;7.28;;;-0.50;99.90;;;;;;4957497;28;20212;-79
2023/12/04 07:45:02;;;;;;;9.85;8.60;;;-0.50;99.90;;;;;;4961345;28;20393;-78
2023/12/04 07:47:32;;;;;;;10.85;9.20;;;-0.40;99.90;;;;;;4962662;28;20229;-79
2023/12/04 07:50:00;;;;;;;9.60;8.60;;;-0.40;99.90;;;;;;4960267;28;21001;-79
2023/12/04 07:52:29;;;;;;;9.18;8.27;;;-0.40;99.90;;;;;;4957209;28;20210;-78
2023/12/04 07:54:57;;;;;;;10.55;8.00;;;-0.40;99.90;;;;;;4962411;28;20219;-79
2023/12/04 07:57:26;;;;;;;9.73;8.82;;;-0.50;99.90;;;;;;4957418;28;20224;-78
2023/12/04 07:59:54;;;;;;;9.23;8.02;;;-0.50;99.90;;;;;;4964148;28;20374;-78
2023/12/04 08:02:22;;;;;;;9.23;8.23;;;-0.40;99.90;;;;;;4959922;28;20216;-79
2023/12/04 08:04:51;;;;;;;9.20;7.88;;;-0.40;99.90;;;;;;4956811;28;20296;-78
2023/12/04 08:07:20;;;;;;;8.00;7.20;;;-0.40;99.90;;;;;;4960114;28;20230;-78
2023/12/04 08:09:48;;;;;;;8.75;7.95;;;-0.30;99.90;;;;;;4959587;28;20220;-79
2023/12/04 08:12:17;;;;;;;8.63;7.70;;;-0.30;99.90;;;;;;4956235;28;20201;-78
2023/12/04 08:14:46;;;;;;;9.75;8.75;;;-0.30;99.90;;;;;;4960129;28;20814;-78
2023/12/04 08:17:14;;;;;;;9.40;8.70;;;-0.30;99.90;;;;;;4958588;28;20216;-79
2023/12/04 08:19:43;;;;;;;13.45;8.45;;;-0.20;99.90;;;;;;4957443;28;20212;-78
2023/12/04 08:22:12;;;;;;;8.85;8.10;;;-0.20;99.90;;;;;;4960113;28;20305;-78
2023/12/04 08:24:41;;;;;;;8.75;7.13;;;-0.30;99.90;;;;;;4958807;28;20208;-78
2023/12/04 08:27:10;;;;;;;8.70;8.05;;;-0.20;99.90;;;;;;4961590;28;20224;-78
2023/12/04 08:29:40;;;;;;;8.02;7.10;;;-0.20;99.90;;;;;;4963970;28;20201;-76
2023/12/04 08:32:08;;;;;;;9.07;8.18;;;-0.20;99.90;;;;;;4961062;28;20205;-79
2023/12/04 08:34:37;;;;;;;8.50;7.70;;;-0.20;99.90;;;;;;4959326;28;20201;-78
2023/12/04 08:37:05;;;;;;;8.35;7.55;;;-0.20;99.90;;;;;;4962928;28;20718;-79
2023/12/04 08:39:35;;;;;;;9.30;7.43;;;-0.30;99.90;;;;;;4962212;28;20296;-78
2023/12/04 08:42:03;;;;;;;8.27;7.57;;;-0.20;99.90;;;;;;4958920;28;20224;-78
2023/12/04 08:44:37;;;;;;;8.82;7.72;;;-0.20;99.90;;;;;;4959935;28;20741;-78
2023/12/04 08:47:06;;;;;;;8.65;7.75;;;-0.10;99.90;;;;;;4958246;28;20220;-78
2023/12/04 08:49:34;;;;;;;9.05;8.15;;;-0.10;99.90;;;;;;4960572;28;20219;-78
2023/12/04 08:52:13;;;;;;;10.43;7.75;;;-0.10;99.90;;;;;;4960638;28;20242;-78
2023/12/04 08:54:43;;;;;;;9.32;8.15;;;-0.10;99.90;;;;;;4958819;28;20212;-78
2023/12/04 08:57:11;;;;;;;9.73;8.02;;;-0.10;99.90;;;;;;4958292;28;20233;-78
2023/12/04 08:59:39;;;;;;;8.73;7.85;;;-0.10;99.90;;;;;;4960676;28;20282;-79
2023/12/04 09:02:07;;;;;;;8.80;7.90;;;-0.10;99.90;;;;;;4957840;28;20227;-79
2023/12/04 09:04:40;;;;;;;8.95;7.80;;;-0.10;99.90;;;;;;4960831;28;20220;-79
2023/12/04 09:07:08;;;;;;;8.30;7.43;;;-0.10;99.90;;;;;;4957601;28;20820;-79
2023/12/04 09:09:39;;;;;;;9.75;8.63;;;0.00;99.90;;;;;;4962085;28;20207;-79
2023/12/04 09:12:11;;;;;;;9.15;8.15;;;0.00;99.90;;;;;;4957375;28;20226;-79
2023/12/04 09:14:39;;;;;;;9.82;8.88;;;0.10;99.90;;;;;;4959537;28;20272;-78
2023/12/04 09:17:07;;;;;;;10.35;9.30;;;0.10;99.90;;;;;;4958131;28;20271;-78
2023/12/04 09:19:36;;;;;;;9.13;8.32;;;0.10;99.90;;;;;;4955863;28;20722;-78
2023/12/04 09:22:04;;;;;;;9.50;8.60;;;0.20;99.90;;;;;;4961143;28;20213;-78
2023/12/04 09:24:45;;;;;;;8.68;7.90;;;0.20;99.90;;;;;;4961229;28;20228;-77
2023/12/04 09:27:15;;;;;;;9.20;8.40;;;0.20;99.90;;;;;;4955942;28;20241;-78
2023/12/04 09:29:43;;;;;;;9.90;8.95;;;0.20;99.90;;;;;;4960698;28;20228;-79
2023/12/04 09:32:11;;;;;;;9.40;8.50;;;0.20;99.90;;;;;;4957079;28;20287;-78
2023/12/04 09:34:40;;;;;;;10.73;9.63;;;0.10;99.90;;;;;;4958206;28;20204;-79
2023/12/04 09:37:08;;;;;;;8.90;7.95;;;0.10;99.90;;;;;;4956886;28;20238;-78
2023/12/04 09:39:40;;;;;;;9.88;8.77;;;0.20;99.90;;;;;;4960677;28;20663;-79
2023/12/04 09:42:09;;;;;;;10.70;9.70;;;0.20;99.90;;;;;;4961693;28;20663;-79
2023/12/04 09:44:40;;;;;;;9.70;8.75;;;0.30;99.90;;;;;;4960735;28;20595;-78
2023/12/04 09:47:10;;;;;;;10.75;9.65;;;0.40;99.90;;;;;;4957673;28;20267;-78
2023/12/04 09:49:40;;;;;;;10.57;9.40;;;0.50;99.90;;;;;;4960729;28;20303;-79
2023/12/04 09:52:08;;;;;;;10.50;9.40;;;0.60;99.90;;;;;;4959578;28;20204;-79
2023/12/04 09:54:38;;;;;;;14.27;12.32;;;0.60;99.90;;;;;;4960371;28;20197;-79
2023/12/04 09:57:06;;;;;;;12.02;9.40;;;0.60;99.90;;;;;;4965675;28;20231;-79
2023/12/04 09:59:36;;;;;;;9.60;8.70;;;0.70;99.90;;;;;;4961649;28;20275;-79
2023/12/04 10:02:06;;;;;;;10.55;9.65;;;0.70;99.90;;;;;;4959217;28;20208;-79
2023/12/04 10:04:36;;;;;;;9.40;8.45;;;0.80;99.90;;;;;;4957195;28;20208;-79
2023/12/04 10:07:05;;;;;;;9.85;8.88;;;0.80;99.90;;;;;;4959984;28;20243;-79
2023/12/04 10:09:33;;;;;;;9.63;8.77;;;0.70;99.90;;;;;;4957801;28;20209;-78
2023/12/04 10:12:02;;;;;;;9.50;8.60;;;0.80;99.90;;;;;;4959235;28;20278;-79
2023/12/04 10:14:30;;;;;;;11.75;9.10;;;0.70;99.90;;;;;;4961370;28;20211;-79
2023/12/04 10:16:59;;;;;;;9.02;8.23;;;0.80;99.90;;;;;;4957654;28;20256;-79
2023/12/04 10:19:30;;;;;;;9.82;8.82;;;0.80;99.90;;;;;;4960102;28;20213;-78
2023/12/04 10:22:00;;;;;;;10.20;9.20;;;0.80;99.90;;;;;;4959838;28;20209;-79
2023/12/04 10:24:31;;;;;;;9.60;8.70;;;0.80;99.90;;;;;;4958751;28;20751;-79
2023/12/04 10:26:59;;;;;;;9.95;8.95;;;0.80;99.90;;;;;;4958862;28;20259;-77
2023/12/04 10:29:43;;;;;;;9.75;8.82;;;0.80;99.90;;;;;;4962977;28;20291;-78
2023/12/04 10:32:11;;;;;;;9.25;8.30;;;0.80;99.90;;;;;;4961549;28;20212;-78
2023/12/04 10:34:42;;;;;;;9.10;8.25;;;0.80;99.90;;;;;;4956761;28;20266;-79
2023/12/04 10:37:11;;;;;;;8.40;7.78;;;0.80;99.90;;;;;;4957635;28;20228;-79
2023/12/04 10:39:48;;;;;;;9.35;8.65;;;0.80;99.90;;;;;;4955805;28;20212;-79
2023/12/04 10:42:25;;;;;;;8.20;7.50;;;0.90;99.90;;;;;;4960321;28;20667;-79
2023/12/04 10:44:56;;;;;;;8.35;7.65;;;0.90;99.90;;;;;;4959789;28;20239;-79
2023/12/04 10:47:25;;;;;;;7.97;7.40;;;1.00;99.90;;;;;;4957961;28;20317;-79
2023/12/04 10:49:56;;;;;;;7.95;7.40;;;1.10;99.90;;;;;;4958577;28;20295;-79
2023/12/04 10:52:24;;;;;;;8.13;7.40;;;1.10;99.90;;;;;;4959982;28;20232;-79
2023/12/04 10:54:53;;;;;;;9.63;8.63;;;1.20;99.90;;;;;;4957753;28;20204;-79
2023/12/04 10:57:28;;;;;;;9.48;8.57;;;1.30;99.90;;;;;;4958167;28;20271;-79
2023/12/04 10:59:58;;;;;;;11.00;9.90;;;1.50;99.90;;;;;;4960163;28;20200;-78
2023/12/04 11:02:27;;;;;;;9.02;8.32;;;1.60;99.90;;;;;;4961375;28;20213;-79
2023/12/04 11:05:07;;;;;;;9.65;8.85;;;1.60;99.90;;;;;;4962483;28;20208;-79
2023/12/04 11:07:38;;;;;;;9.20;8.32;;;1.60;99.90;;;;;;4960698;28;20212;-79
2023/12/04 11:10:30;;;;;;;12.07;8.98;;;1.70;99.90;;;;;;4962101;28;20223;-79
2023/12/04 11:13:06;;;;;;;9.50;8.65;;;1.50;99.90;;;;;;4963849;28;20208;-79
2023/12/04 11:15:42;;;;;;;9.95;9.15;;;1.50;99.90;;;;;;4963559;28;20698;-79
2023/12/04 11:18:14;;;;;;;9.27;8.43;;;1.60;99.90;;;;;;4963709;28;20761;-79
2023/12/04 11:20:49;;;;;;;9.38;8.57;;;1.60;99.90;;;;;;4962707;28;20208;-79
2023/12/04 11:23:18;;;;;;;11.13;8.38;;;1.70;99.90;;;;;;4960028;28;20206;-79
2023/12/04 11:25:47;;;;;;;9.73;9.02;;;1.70;99.90;;;;;;4955726;28;20291;-77
2023/12/04 11:28:16;;;;;;;10.13;9.43;;;1.70;99.90;;;;;;4953066;28;20284;-79
2023/12/04 11:30:46;;;;;;;9.70;8.90;;;1.70;99.90;;;;;;4951679;28;20685;-77
2023/12/04 11:33:14;;;;;;;11.15;10.02;;;1.70;99.90;;;;;;4960640;28;20211;-79
2023/12/04 11:35:45;;;;;;;10.70;9.77;;;1.70;99.90;;;;;;4961033;28;20718;-79
2023/12/04 11:38:15;;;;;;;9.95;8.95;;;1.70;99.90;;;;;;4957318;28;20225;-79
2023/12/04 11:40:44;;;;;;;10.55;9.57;;;1.80;99.90;;;;;;4957136;28;20201;-78
2023/12/04 11:43:23;;;;;;;10.02;9.15;;;1.90;99.90;;;;;;4958915;28;20280;-78
2023/12/04 11:45:51;;;;;;;9.93;9.02;;;1.90;99.90;;;;;;4951083;28;20228;-79
2023/12/04 11:48:24;;;;;;;10.50;9.70;;;1.90;1.00;;;;;;4958763;28;20232;-78
2023/12/04 11:50:57;;;;;;;10.00;9.30;;;2.00;1.00;;;;;;4955158;28;20201;-79
2023/12/04 11:53:26;;;;;;;10.60;9.70;;;2.10;1.00;;;;;;4960861;28;20201;-79
2023/12/04 11:55:57;;;;;;;10.32;9.43;;;2.10;1.00;;;;;;4957859;28;20220;-77
2023/12/04 11:58:27;;;;;;;10.13;9.32;;;2.20;1.00;;;;;;4955602;28;20243;-79
2023/12/04 12:00:55;;;;;;;9.77;9.13;;;2.20;1.00;;;;;;4955471;28;20223;-78
2023/12/04 12:03:24;;;;;;;9.85;9.15;;;2.30;1.00;;;;;;4957831;28;20213;-79
2023/12/04 12:05:54;;;;;;;10.73;9.82;;;2.40;1.00;;;;;;4958259;28;20729;-79
2023/12/04 12:08:24;;;;;;;10.63;9.70;;;2.40;1.00;;;;;;4957510;28;20201;-79
2023/12/04 12:10:54;;;;;;;10.88;9.90;;;2.40;1.00;;;;;;4957647;28;20757;-78
2023/12/04 12:13:25;;;;;;;9.35;8.45;;;2.50;1.00;;;;;;4955972;28;20201;-79
2023/12/04 12:15:54;;;;;;;10.30;9.55;;;2.40;1.00;;;;;;4957037;28;20311;-79
2023/12/04 12:18:24;;;;;;;10.55;9.63;;;2.50;1.00;;;;;;4957607;28;20287;-78
2023/12/04 12:20:57;;;;;;;10.80;10.00;;;2.50;1.00;;;;;;4958977;28;20204;-78
2023/12/04 12:23:26;;;;;;;10.48;9.57;;;2.60;1.00;;;;;;4957073;28;20213;-79
2023/12/04 12:25:56;;;;;;;11.00;10.20;;;2.60;1.00;;;;;;4958064;28;20221;-79
2023/12/04 12:28:24;;;;;;;10.57;9.68;;;2.60;1.00;;;;;;4958207;28;20202;-78
2023/12/04 12:30:53;;;;;;;10.95;10.18;;;2.60;1.00;;;;;;4954492;28;20210;-78
2023/12/04 12:33:23;;;;;;;10.23;9.48;;;2.60;1.00;;;;;;4954662;28;20208;-78
2023/12/04 12:35:51;;;;;;;11.98;10.90;;;2.50;1.00;;;;;;4956420;28;20598;-78
2023/12/04 12:38:34;;;;;;;12.82;11.65;;;2.60;1.00;;;;;;4953112;28;20212;-79
2023/12/04 12:41:06;;;;;;;11.80;10.90;;;2.60;1.00;;;;;;4958766;28;20263;-78
2023/12/04 12:43:35;;;;;;;11.98;11.07;;;2.60;1.00;;;;;;4960674;28;20205;-79
2023/12/04 12:46:05;;;;;;;11.98;10.95;;;2.60;39.20;;;;;;4958010;28;20233;-78
2023/12/04 12:48:34;;;;;;;12.52;11.55;;;2.60;99.80;;;;;;4961848;28;20224;-78
2023/12/04 12:51:03;;;;;;;12.38;11.48;;;2.70;99.90;;;;;;4960933;28;20290;-78
2023/12/04 12:53:34;;;;;;;13.70;12.50;;;2.70;99.90;;;;;;4960318;28;20193;-78
2023/12/04 12:56:04;;;;;;;12.23;11.23;;;2.70;99.90;;;;;;4958388;28;20699;-79